Time;durP1;ratioP1;P1;durP2;ratioP2;P2;SDS_P1;SDS_P2;PMS_P1;PMS_P2;Temp;Humidity;BMP_temperature;BMP_pressure;BME280_temperature;BME280_humidity;BME280_pressure;Samples;Min_cycle;Max_cycle;Signal;HPM_P1;HPM_P2
2023/07/03 00:00:31;;;;;;;17.57;9.20;;;;;;;16.52;97.06;99646.19;4988463;28;20595;-69
2023/07/03 00:02:56;;;;;;;19.77;10.53;;;;;;;16.57;96.40;99646.63;5006813;28;20229;-68
2023/07/03 00:05:23;;;;;;;21.80;10.37;;;;;;;16.57;96.77;99650.97;4993252;28;20196;-69
2023/07/03 00:07:49;;;;;;;19.20;10.37;;;;;;;16.53;97.01;99653.00;4995679;28;20553;-68
2023/07/03 00:10:15;;;;;;;18.13;9.07;;;;;;;16.50;96.81;99648.09;4985182;28;20179;-69
2023/07/03 00:12:41;;;;;;;21.27;10.50;;;;;;;16.46;97.30;99644.94;5002309;28;20206;-68
2023/07/03 00:15:06;;;;;;;19.07;9.73;;;;;;;16.54;97.96;99651.25;4992206;28;20639;-68
2023/07/03 00:17:32;;;;;;;18.17;10.20;;;;;;;16.48;97.98;99656.97;4994852;28;20203;-69
2023/07/03 00:19:57;;;;;;;17.00;9.70;;;;;;;16.44;98.16;99657.22;4993141;28;20242;-68
2023/07/03 00:22:23;;;;;;;18.57;10.33;;;;;;;16.38;98.52;99659.53;5001008;28;20231;-68
2023/07/03 00:24:48;;;;;;;19.03;10.17;;;;;;;16.35;99.00;99658.03;4993919;28;20679;-69
2023/07/03 00:27:13;;;;;;;19.50;10.10;;;;;;;16.27;99.37;99657.84;5014197;28;20322;-69
2023/07/03 00:29:39;;;;;;;20.63;10.03;;;;;;;16.26;100.00;99654.47;5013895;28;20244;-69
2023/07/03 00:32:06;;;;;;;20.30;10.03;;;;;;;16.20;100.00;99657.56;5019324;28;20218;-68
2023/07/03 00:34:31;;;;;;;19.53;10.60;;;;;;;16.22;100.00;99660.84;4999424;28;21140;-68
2023/07/03 00:36:57;;;;;;;17.40;10.43;;;;;;;16.18;100.00;99656.06;4998704;28;20188;-68
2023/07/03 00:39:22;;;;;;;18.47;10.23;;;;;;;16.13;100.00;99661.63;5007902;28;20281;-69
2023/07/03 00:41:47;;;;;;;18.00;10.27;;;;;;;16.05;100.00;99651.09;5017011;28;20217;-68
2023/07/03 00:44:15;;;;;;;26.13;11.13;;;;;;;16.04;100.00;99665.00;5014083;28;20273;-68
2023/07/03 00:46:43;;;;;;;20.83;10.03;;;;;;;15.98;100.00;99664.56;5012244;28;20190;-68
2023/07/03 00:49:10;;;;;;;13.57;9.73;;;;;;;15.76;100.00;99662.91;5011454;28;20202;-69
2023/07/03 00:51:41;;;;;;;16.83;9.73;;;;;;;15.56;100.00;99659.41;4999826;28;20629;-69
2023/07/03 00:54:06;;;;;;;17.00;10.27;;;;;;;15.51;100.00;99664.13;5014697;28;20260;-69
2023/07/03 00:56:32;;;;;;;18.60;10.73;;;;;;;15.42;100.00;99659.72;5012964;28;20639;-69
2023/07/03 00:58:57;;;;;;;21.33;11.20;;;;;;;15.37;100.00;99667.03;5010728;28;20210;-69
2023/07/03 01:01:34;;;;;;;20.43;9.93;;;;;;;15.28;100.00;99663.41;5013024;28;20633;-68
2023/07/03 01:04:17;;;;;;;17.70;10.07;;;;;;;15.12;100.00;99658.66;5010252;28;20313;-69
2023/07/03 01:06:47;;;;;;;19.10;11.03;;;;;;;15.10;100.00;99666.56;5013095;28;20220;-69
2023/07/03 01:09:16;;;;;;;24.07;11.27;;;;;;;15.17;100.00;99662.53;5011099;28;20210;-69
2023/07/03 01:11:43;;;;;;;17.37;10.57;;;;;;;15.19;100.00;99666.78;5015290;28;20636;-70
2023/07/03 01:14:10;;;;;;;20.10;10.97;;;;;;;15.27;100.00;99664.38;5010050;28;20225;-69
2023/07/03 01:16:36;;;;;;;19.73;11.50;;;;;;;15.19;100.00;99664.19;5013340;28;20179;-67
2023/07/03 01:19:08;;;;;;;23.30;11.10;;;;;;;15.26;100.00;99660.97;5012942;28;20182;-67
2023/07/03 01:21:42;;;;;;;23.17;10.13;;;;;;;15.39;100.00;99659.97;5013617;28;20308;-68
2023/07/03 01:24:12;;;;;;;22.17;10.57;;;;;;;15.40;100.00;99661.59;5002517;28;20207;-68
2023/07/03 01:26:41;;;;;;;23.27;10.83;;;;;;;15.39;100.00;99665.97;4993893;28;20219;-69
2023/07/03 01:29:08;;;;;;;20.53;11.23;;;;;;;15.42;100.00;99664.91;5002763;28;20203;-69
2023/07/03 01:31:36;;;;;;;19.60;10.07;;;;;;;15.45;100.00;99668.03;4984780;28;20230;-69
2023/07/03 01:34:03;;;;;;;20.47;10.43;;;;;;;15.47;100.00;99671.34;4996204;28;20682;-69
2023/07/03 01:36:31;;;;;;;19.70;10.47;;;;;;;15.40;100.00;99671.97;4991624;28;20191;-69
2023/07/03 01:38:58;;;;;;;19.10;10.37;;;;;;;15.40;100.00;99670.19;4993123;28;20596;-69
2023/07/03 01:41:24;;;;;;;18.50;10.67;;;;;;;15.32;100.00;99670.81;4984534;28;20229;-68
2023/07/03 01:43:50;;;;;;;21.83;10.97;;;;;;;15.27;100.00;99666.94;4996655;28;20183;-68
2023/07/03 01:46:16;;;;;;;21.23;10.10;;;;;;;15.13;100.00;99657.72;4993516;28;20647;-69
2023/07/03 01:48:41;;;;;;;21.10;9.70;;;;;;;15.12;100.00;99667.25;4993607;28;20196;-69
2023/07/03 01:51:11;;;;;;;19.83;10.20;;;;;;;15.05;100.00;99654.94;4991460;28;20697;-69
2023/07/03 01:53:45;;;;;;;19.20;10.97;;;;;;;14.96;100.00;99661.69;4999332;28;20190;-69
2023/07/03 01:56:24;;;;;;;20.93;12.07;;;;;;;14.82;100.00;99657.56;4992384;28;20270;-69
2023/07/03 01:58:52;;;;;;;19.30;10.53;;;;;;;14.87;100.00;99660.63;4992971;28;20258;-69
2023/07/03 02:01:33;;;;;;;18.23;10.33;;;;;;;14.76;100.00;99660.66;4992982;28;20230;-69
2023/07/03 02:04:07;;;;;;;21.47;11.47;;;;;;;14.73;100.00;99661.72;4997129;28;20258;-69
2023/07/03 02:06:37;;;;;;;19.50;10.97;;;;;;;14.70;100.00;99661.97;4992520;28;20274;-69
2023/07/03 02:09:05;;;;;;;21.17;9.80;;;;;;;14.72;100.00;99670.44;4993089;28;20625;-68
2023/07/03 02:11:30;;;;;;;23.17;10.80;;;;;;;14.69;100.00;99660.34;4993833;28;20234;-68
2023/07/03 02:13:56;;;;;;;16.83;10.30;;;;;;;14.68;100.00;99664.66;4992571;28;20218;-69
2023/07/03 02:16:21;;;;;;;19.83;10.90;;;;;;;14.67;100.00;99667.38;4992582;28;20669;-69
2023/07/03 02:18:47;;;;;;;15.67;10.20;;;;;;;14.68;100.00;99666.44;4993498;28;20692;-69
2023/07/03 02:21:14;;;;;;;22.83;11.00;;;;;;;14.67;100.00;99670.81;4992348;28;20234;-69
2023/07/03 02:23:40;;;;;;;19.90;9.97;;;;;;;14.60;100.00;99676.53;4998702;28;20689;-68
2023/07/03 02:26:05;;;;;;;22.70;10.20;;;;;;;14.66;100.00;99676.09;4992050;28;20211;-68
2023/07/03 02:28:30;;;;;;;17.33;10.23;;;;;;;14.56;100.00;99675.94;4990440;28;20234;-68
2023/07/03 02:30:56;;;;;;;18.87;10.07;;;;;;;14.61;100.00;99680.78;4984218;28;20532;-68
2023/07/03 02:33:21;;;;;;;18.73;10.73;;;;;;;14.60;100.00;99679.97;5013597;28;20210;-68
2023/07/03 02:35:47;;;;;;;20.40;11.03;;;;;;;14.63;100.00;99691.84;4991711;28;20269;-68
2023/07/03 02:38:12;;;;;;;19.07;10.77;;;;;;;14.55;100.00;99687.28;4992093;28;20635;-69
2023/07/03 02:40:37;;;;;;;18.70;10.93;;;;;;;14.50;100.00;99689.41;4987244;28;20234;-70
2023/07/03 02:43:03;;;;;;;23.33;10.27;;;;;;;14.46;100.00;99686.22;5002586;28;20175;-68
2023/07/03 02:45:37;;;;;;;20.03;10.30;;;;;;;14.43;100.00;99683.84;4990450;28;20652;-68
2023/07/03 02:48:03;;;;;;;18.90;10.83;;;;;;;14.31;100.00;99692.56;4992064;28;20653;-68
2023/07/03 02:50:28;;;;;;;22.47;11.73;;;;;;;14.24;100.00;99693.97;4983830;28;20231;-69
2023/07/03 02:52:53;;;;;;;17.47;10.10;;;;;;;14.34;100.00;99687.16;5003872;28;20294;-70
2023/07/03 02:55:19;;;;;;;22.20;11.73;;;;;;;14.33;100.00;99690.69;4992163;28;20194;-70
2023/07/03 02:57:44;;;;;;;19.87;10.27;;;;;;;14.43;100.00;99688.22;4992112;28;20549;-70
2023/07/03 03:00:11;;;;;;;17.63;9.80;;;;;;;14.40;100.00;99683.28;4972978;28;20184;-70
2023/07/03 03:02:36;;;;;;;16.53;10.40;;;;;;;14.36;100.00;99693.88;4990533;28;20217;-70
2023/07/03 03:05:01;;;;;;;20.27;10.87;;;;;;;14.26;100.00;99692.91;4992423;28;20646;-70
2023/07/03 03:07:27;;;;;;;17.70;10.67;;;;;;;14.34;100.00;99692.34;4993135;28;20660;-69
2023/07/03 03:09:52;;;;;;;25.27;11.00;;;;;;;14.35;100.00;99699.13;4992921;28;20180;-69
2023/07/03 03:12:17;;;;;;;20.00;10.27;;;;;;;14.33;100.00;99703.63;4995756;28;20268;-68
2023/07/03 03:14:43;;;;;;;17.00;9.63;;;;;;;14.27;100.00;99701.50;4990803;28;20187;-69
2023/07/03 03:17:08;;;;;;;17.53;9.67;;;;;;;14.29;100.00;99699.59;4997216;28;20219;-69
2023/07/03 03:19:33;;;;;;;22.13;9.67;;;;;;;14.23;100.00;99697.50;4992647;28;20183;-70
2023/07/03 03:21:58;;;;;;;18.27;9.07;;;;;;;14.24;100.00;99701.72;4996696;28;20222;-70
2023/07/03 03:24:25;;;;;;;20.60;10.03;;;;;;;14.17;100.00;99704.78;4989856;28;20652;-70
2023/07/03 03:26:50;;;;;;;19.93;9.83;;;;;;;14.18;100.00;99700.44;4990341;28;20219;-70
2023/07/03 03:29:15;;;;;;;20.07;10.23;;;;;;;14.24;100.00;99702.56;4990722;28;20179;-70
2023/07/03 03:31:41;;;;;;;19.93;9.13;;;;;;;14.35;100.00;99696.56;4974282;28;20721;-70
2023/07/03 03:34:06;;;;;;;19.43;10.33;;;;;;;14.35;100.00;99694.81;4994539;28;20215;-69
2023/07/03 03:36:38;;;;;;;19.13;9.23;;;;;;;14.48;100.00;99686.09;4991494;28;20224;-69
2023/07/03 03:39:04;;;;;;;21.17;10.00;;;;;;;14.65;100.00;99685.63;5002653;28;20179;-69
2023/07/03 03:41:30;;;;;;;19.50;9.00;;;;;;;14.63;100.00;99687.47;5011454;28;20588;-68
2023/07/03 03:43:55;;;;;;;17.50;9.13;;;;;;;14.76;100.00;99689.97;5015028;28;20294;-70
2023/07/03 03:46:20;;;;;;;19.43;9.23;;;;;;;14.70;100.00;99690.47;5010857;28;20186;-69
2023/07/03 03:48:45;;;;;;;15.00;8.60;;;;;;;14.83;100.00;99685.97;5014482;28;20186;-67
2023/07/03 03:51:11;;;;;;;17.53;8.83;;;;;;;14.86;100.00;99679.72;5012968;28;20563;-68
2023/07/03 03:53:36;;;;;;;17.57;8.30;;;;;;;15.00;100.00;99686.38;5020838;28;20194;-68
2023/07/03 03:56:02;;;;;;;20.33;9.33;;;;;;;14.95;100.00;99686.75;5013574;28;20175;-68
2023/07/03 03:58:27;;;;;;;19.20;8.47;;;;;;;14.96;100.00;99682.41;5014296;28;20217;-70
2023/07/03 04:00:52;;;;;;;20.43;8.47;;;;;;;14.96;100.00;99680.63;5010308;28;20321;-70
2023/07/03 04:03:18;;;;;;;17.90;7.30;;;;;;;14.97;100.00;99686.59;5023940;28;20525;-69
2023/07/03 04:05:43;;;;;;;21.03;8.23;;;;;;;14.96;100.00;99683.22;5013179;28;20213;-70
2023/07/03 04:08:09;;;;;;;17.77;7.63;;;;;;;14.97;100.00;99679.69;5014172;28;20717;-69
2023/07/03 04:10:35;;;;;;;17.27;7.40;;;;;;;15.09;100.00;99680.44;5007777;28;20218;-69
2023/07/03 04:13:00;;;;;;;14.80;6.97;;;;;;;15.08;100.00;99689.19;5025525;28;20190;-69
2023/07/03 04:15:25;;;;;;;16.33;6.80;;;;;;;15.18;100.00;99689.25;5000452;28;20201;-68
2023/07/03 04:17:50;;;;;;;16.03;6.73;;;;;;;15.20;100.00;99692.56;5012837;28;20236;-69
2023/07/03 04:20:17;;;;;;;16.30;6.37;;;;;;;15.25;100.00;99698.19;5004556;28;20871;-70
2023/07/03 04:22:43;;;;;;;20.47;6.40;;;;;;;15.38;100.00;99700.63;5027196;28;20543;-69
2023/07/03 04:25:09;;;;;;;14.30;6.20;;;;;;;15.37;100.00;99693.78;5000357;28;20210;-69
2023/07/03 04:27:35;;;;;;;14.77;6.60;;;;;;;15.27;100.00;99696.28;5004555;28;20238;-69
2023/07/03 04:30:01;;;;;;;21.13;7.17;;;;;;;15.33;100.00;99698.38;4992972;28;20237;-69
2023/07/03 04:32:27;;;;;;;13.37;5.73;;;;;;;15.37;100.00;99698.97;4999702;28;20301;-70
2023/07/03 04:34:53;;;;;;;15.27;6.80;;;;;;;15.51;100.00;99702.22;4992414;28;20321;-69
2023/07/03 04:37:18;;;;;;;18.87;6.23;;;;;;;15.72;100.00;99712.59;4994401;28;20765;-68
2023/07/03 04:39:43;;;;;;;15.87;5.53;;;;;;;15.81;100.00;99704.88;4994136;28;20183;-69
2023/07/03 04:42:13;;;;;;;15.30;6.10;;;;;;;15.93;100.00;99715.22;4985377;28;20262;-69
2023/07/03 04:44:39;;;;;;;17.17;6.67;;;;;;;15.97;100.00;99714.81;4997668;28;20190;-70
2023/07/03 04:47:19;;;;;;;11.47;6.33;;;;;;;15.95;100.00;99715.88;5003279;28;20258;-70
2023/07/03 04:49:45;;;;;;;14.50;6.43;;;;;;;16.04;100.00;99719.47;5013065;28;20171;-58
2023/07/03 04:52:16;;;;;;;15.40;5.43;;;;;;;16.30;100.00;99720.72;5018605;28;20226;-59
2023/07/03 04:54:42;;;;;;;21.87;6.37;;;;;;;16.37;100.00;99728.81;5006292;28;20199;-58
2023/07/03 04:57:07;;;;;;;21.70;6.30;;;;;;;16.47;100.00;99734.00;4994146;28;20647;-58
2023/07/03 04:59:32;;;;;;;15.77;6.87;;;;;;;16.42;100.00;99724.06;4999311;28;20236;-57
2023/07/03 05:01:58;;;;;;;16.97;6.60;;;;;;;16.55;100.00;99729.00;5005087;28;20628;-58
2023/07/03 05:04:23;;;;;;;15.57;6.33;;;;;;;16.59;100.00;99734.75;4993665;28;20197;-57
2023/07/03 05:06:49;;;;;;;14.50;6.77;;;;;;;16.93;100.00;99734.47;5005900;28;20585;-58
2023/07/03 05:09:14;;;;;;;18.73;7.00;;;;;;;17.02;100.00;99731.06;5012556;28;20183;-58
2023/07/03 05:11:40;;;;;;;14.83;6.87;;;;;;;16.98;100.00;99742.69;5015152;28;20728;-57
2023/07/03 05:14:05;;;;;;;16.00;6.83;;;;;;;17.14;100.00;99739.56;5014353;28;20182;-57
2023/07/03 05:16:30;;;;;;;15.43;6.53;;;;;;;17.31;99.99;99739.84;5012873;28;20289;-58
2023/07/03 05:18:56;;;;;;;12.93;7.13;;;;;;;17.39;100.00;99748.63;5012416;28;20177;-59
2023/07/03 05:21:21;;;;;;;14.63;6.87;;;;;;;17.48;98.45;99746.97;5012782;28;20711;-57
2023/07/03 05:23:46;;;;;;;15.60;6.87;;;;;;;17.47;98.37;99753.13;5011122;28;20222;-58
2023/07/03 05:26:12;;;;;;;17.00;6.90;;;;;;;17.56;98.00;99747.13;5003684;28;20210;-58
2023/07/03 05:28:37;;;;;;;15.93;6.70;;;;;;;17.80;96.57;99747.63;4994727;28;20202;-58
2023/07/03 05:31:03;;;;;;;16.23;6.53;;;;;;;17.78;95.38;99752.97;4990983;28;20713;-58
2023/07/03 05:33:29;;;;;;;16.23;7.00;;;;;;;17.89;95.96;99746.81;5000430;28;20224;-57
2023/07/03 05:35:58;;;;;;;18.67;6.93;;;;;;;17.86;94.14;99753.09;4992860;28;20547;-57
2023/07/03 05:38:23;;;;;;;14.43;7.13;;;;;;;18.09;93.08;99759.81;4983879;28;20522;-58
2023/07/03 05:40:50;;;;;;;14.57;7.00;;;;;;;18.06;91.40;99758.31;4988958;28;20312;-57
2023/07/03 05:43:15;;;;;;;15.80;6.50;;;;;;;17.93;92.00;99762.97;5007812;28;20179;-57
2023/07/03 05:45:41;;;;;;;15.03;5.90;;;;;;;17.91;91.70;99770.88;4998505;28;20203;-57
2023/07/03 05:48:06;;;;;;;12.40;5.57;;;;;;;17.84;91.72;99760.22;4993099;28;20180;-57
2023/07/03 05:50:31;;;;;;;16.97;6.03;;;;;;;17.80;92.21;99765.84;4986609;28;20244;-57
2023/07/03 05:52:57;;;;;;;18.00;5.57;;;;;;;18.21;89.42;99762.09;5003990;28;20213;-58
2023/07/03 05:55:22;;;;;;;17.57;5.80;;;;;;;18.44;87.43;99768.75;4992156;28;20187;-58
2023/07/03 05:57:47;;;;;;;12.67;5.47;;;;;;;18.53;85.59;99775.69;4992737;28;20647;-57
2023/07/03 06:00:13;;;;;;;11.47;4.73;;;;;;;18.91;81.66;99779.09;4983737;28;20186;-59
2023/07/03 06:02:43;;;;;;;15.20;4.80;;;;;;;18.85;80.40;99775.28;4996938;28;20642;-58
2023/07/03 06:05:11;;;;;;;12.57;5.23;;;;;;;18.52;79.93;99776.66;5010131;28;20218;-58
2023/07/03 06:07:36;;;;;;;16.50;4.77;;;;;;;18.95;79.49;99785.69;4999002;28;20706;-59
2023/07/03 06:10:03;;;;;;;18.17;5.53;;;;;;;19.10;79.09;99782.56;5008872;28;20273;-59
2023/07/03 06:12:29;;;;;;;15.50;5.03;;;;;;;19.03;76.72;99788.34;5006901;28;20293;-58
2023/07/03 06:14:57;;;;;;;12.83;5.27;;;;;;;19.05;79.33;99790.81;5005061;28;20646;-58
2023/07/03 06:17:23;;;;;;;12.30;5.10;;;;;;;18.98;77.24;99792.38;5012401;28;20197;-56
2023/07/03 06:19:48;;;;;;;12.37;5.33;;;;;;;19.05;75.38;99798.63;5011815;28;20255;-59
2023/07/03 06:22:13;;;;;;;12.83;4.93;;;;;;;18.80;80.00;99806.13;5017266;28;20221;-56
2023/07/03 06:24:39;;;;;;;15.37;4.90;;;;;;;19.04;80.19;99804.84;4998752;28;20655;-58
2023/07/03 06:27:06;;;;;;;18.40;4.80;;;;;;;19.21;77.40;99802.41;4997903;28;20341;-58
2023/07/03 06:29:31;;;;;;;13.90;5.07;;;;;;;19.07;79.42;99809.75;5008040;28;20229;-58
2023/07/03 06:31:57;;;;;;;11.53;5.33;;;;;;;18.79;80.62;99814.94;5011893;28;20221;-58
2023/07/03 06:34:22;;;;;;;15.17;5.03;;;;;;;18.99;79.05;99812.25;4996645;28;20206;-60
2023/07/03 06:36:47;;;;;;;13.90;5.07;;;;;;;19.14;78.44;99810.81;5001442;28;20200;-58
2023/07/03 06:39:12;;;;;;;17.50;4.67;;;;;;;19.59;76.52;99806.50;4997001;28;20199;-60
2023/07/03 06:41:38;;;;;;;13.40;4.87;;;;;;;19.68;74.65;99810.84;4999347;28;20223;-59
2023/07/03 06:44:05;;;;;;;13.60;4.87;;;;;;;19.85;73.00;99818.84;4994832;28;20190;-59
2023/07/03 06:46:30;;;;;;;10.93;4.93;;;;;;;19.96;70.11;99818.59;4991618;28;20191;-59
2023/07/03 06:48:56;;;;;;;10.63;4.83;;;;;;;20.06;70.31;99809.88;4991769;28;20548;-59
2023/07/03 06:51:23;;;;;;;11.87;4.40;;;;;;;20.13;68.36;99813.47;4991929;28;20238;-59
2023/07/03 06:53:48;;;;;;;13.80;4.43;;;;;;;20.37;67.65;99807.59;4997417;28;20245;-59
2023/07/03 06:56:13;;;;;;;11.57;5.13;;;;;;;22.00;58.48;99811.81;4992553;28;20262;-59
2023/07/03 06:58:39;;;;;;;8.20;4.17;;;;;;;22.18;55.18;99817.66;4992267;28;20191;-59
2023/07/03 07:01:11;;;;;;;10.93;4.17;;;;;;;23.38;49.07;99815.91;4991582;28;20218;-59
2023/07/03 07:03:38;;;;;;;9.93;3.90;;;;;;;23.91;46.60;99821.25;5008169;28;20186;-57
2023/07/03 07:06:12;;;;;;;10.63;4.53;;;;;;;24.70;44.20;99822.66;5006666;28;20662;-58
2023/07/03 07:08:37;;;;;;;11.52;4.07;;;;;;;25.59;40.86;99818.16;4998046;28;20198;-59
2023/07/03 07:11:07;;;;;;;9.65;4.32;;;;;;;24.56;42.74;99818.16;4986183;28;20218;-59
2023/07/03 07:13:32;;;;;;;16.33;4.65;;;;;;;25.43;40.67;99824.50;4993575;28;20195;-59
2023/07/03 07:15:58;;;;;;;10.80;5.00;;;;;;;25.75;40.73;99823.16;4988373;28;20701;-60
2023/07/03 07:18:23;;;;;;;7.72;3.83;;;;;;;24.76;41.33;99824.53;5000402;28;20184;-59
2023/07/03 07:20:48;;;;;;;8.93;3.90;;;;;;;25.48;42.22;99819.47;4984384;28;20223;-59
2023/07/03 07:23:13;;;;;;;10.93;3.75;;;;;;;26.32;38.54;99817.09;5004692;28;20495;-59
2023/07/03 07:25:39;;;;;;;11.68;4.28;;;;;;;27.43;36.46;99817.94;4995099;28;20262;-59
2023/07/03 07:28:04;;;;;;;11.93;5.22;;;;;;;25.38;39.40;99825.06;4995455;28;20534;-59
2023/07/03 07:30:29;;;;;;;10.32;4.55;;;;;;;24.18;42.38;99819.06;4968709;28;20231;-59
2023/07/03 07:32:56;;;;;;;10.13;4.28;;;;;;;24.02;43.77;99822.66;5007141;28;20298;-58
2023/07/03 07:35:22;;;;;;;11.60;4.53;;;;;;;24.25;42.36;99804.22;5002004;28;20627;-59
2023/07/03 07:37:48;;;;;;;12.15;4.70;;;;;;;24.70;41.79;99798.97;5005972;28;20540;-59
2023/07/03 07:40:13;;;;;;;12.45;4.82;;;;;;;25.74;38.76;99805.72;5005893;28;20253;-58
2023/07/03 07:42:38;;;;;;;10.95;3.78;;;;;;;26.22;37.27;99796.34;5015443;28;20642;-59
2023/07/03 07:45:05;;;;;;;10.15;4.43;;;;;;;26.95;36.41;99803.78;5014542;28;20282;-58
2023/07/03 07:47:31;;;;;;;6.65;2.95;;;;;;;26.80;36.33;99800.50;5001074;28;20587;-58
2023/07/03 07:49:58;;;;;;;10.00;4.00;;;;;;;28.23;33.61;99795.97;4995560;28;20634;-58
2023/07/03 07:52:23;;;;;;;15.57;4.35;;;;;;;28.63;31.85;99812.53;4999990;28;20235;-59
2023/07/03 07:54:56;;;;;;;10.30;4.28;;;;;;;28.82;31.60;99818.78;4993579;28;20203;-59
2023/07/03 07:57:22;;;;;;;8.25;3.75;;;;;;;28.53;32.01;99820.09;4995057;28;20187;-59
2023/07/03 07:59:48;;;;;;;10.25;3.85;;;;;;;26.86;34.31;99819.00;4995086;28;20206;-59
2023/07/03 08:02:13;;;;;;;10.18;4.13;;;;;;;26.31;36.19;99810.19;4999384;28;20629;-58
2023/07/03 08:04:38;;;;;;;11.63;3.88;;;;;;;25.60;37.34;99806.59;5002752;28;20210;-58
2023/07/03 08:07:04;;;;;;;13.90;4.00;;;;;;;25.70;37.75;99808.91;5013155;28;20189;-59
2023/07/03 08:09:29;;;;;;;7.93;3.40;;;;;;;24.68;38.74;99813.31;5013854;28;20529;-58
2023/07/03 08:11:54;;;;;;;8.57;3.20;;;;;;;24.06;40.59;99815.25;5017352;28;20257;-58
2023/07/03 08:14:20;;;;;;;7.80;3.72;;;;;;;23.86;40.33;99818.34;5013887;28;20642;-57
2023/07/03 08:16:45;;;;;;;11.70;3.55;;;;;;;23.41;42.51;99812.97;5013283;28;20187;-58
2023/07/03 08:19:10;;;;;;;7.78;3.42;;;;;;;23.69;41.16;99815.88;5010497;28;20179;-58
2023/07/03 08:21:36;;;;;;;8.05;3.55;;;;;;;23.49;42.00;99814.69;4999455;28;20262;-58
2023/07/03 08:24:01;;;;;;;8.23;3.13;;;;;;;23.69;41.10;99818.50;5004682;28;20242;-59
2023/07/03 08:26:26;;;;;;;8.57;3.23;;;;;;;23.86;40.85;99815.72;5007216;28;20175;-58
2023/07/03 08:28:52;;;;;;;5.20;3.03;;;;;;;24.13;40.38;99816.16;5013557;28;20249;-58
2023/07/03 08:31:17;;;;;;;9.13;3.77;;;;;;;24.51;40.07;99818.75;5010541;28;20240;-59
2023/07/03 08:33:42;;;;;;;9.68;3.00;;;;;;;24.61;39.43;99823.69;5017431;28;20293;-59
2023/07/03 08:36:08;;;;;;;9.13;3.63;;;;;;;24.46;39.50;99824.53;5011286;28;20221;-59
2023/07/03 08:38:33;;;;;;;6.57;3.60;;;;;;;24.74;40.42;99807.31;5004792;28;20193;-58
2023/07/03 08:41:00;;;;;;;8.27;3.38;;;;;;;24.58;39.57;99813.56;4993326;28;20398;-58
2023/07/03 08:43:39;;;;;;;9.25;3.70;;;;;;;24.23;40.06;99819.34;4995314;28;20211;-58
2023/07/03 08:46:10;;;;;;;8.05;3.70;;;;;;;25.02;39.73;99810.06;4989560;28;20195;-58
2023/07/03 08:48:36;;;;;;;8.73;3.35;;;;;;;26.41;36.42;99819.38;4993888;28;20255;-58
2023/07/03 08:51:04;;;;;;;6.60;3.67;;;;;;;26.25;35.81;99814.41;4992942;28;20304;-58
2023/07/03 08:53:35;;;;;;;7.25;3.50;;;;;;;26.81;35.21;99826.69;4994251;28;20191;-58
2023/07/03 08:56:16;;;;;;;10.13;3.53;;;;;;;27.25;34.44;99826.41;4995875;28;20301;-59
2023/07/03 08:58:43;;;;;;;14.63;3.63;;;;;;;27.00;34.18;99814.59;4993798;28;20219;-59
2023/07/03 09:01:26;;;;;;;11.63;3.85;;;;;;;26.72;34.94;99818.09;4992070;28;20676;-58
2023/07/03 09:04:31;;;;;;;7.60;3.47;;;;;;;27.01;33.67;99821.47;4998305;28;20187;-58
2023/07/03 09:07:01;;;;;;;5.38;3.20;;;;;;;26.62;34.79;99820.28;4993525;28;20602;-58
2023/07/03 09:10:17;;;;;;;8.30;3.55;;;;;;;25.11;37.57;99826.56;4993886;28;20179;-59
2023/07/03 09:12:49;;;;;;;7.63;3.67;;;;;;;26.83;35.82;99818.56;4916523;29;20220;-59
2023/07/03 09:15:24;;;;;;;9.40;3.78;;;;;;;27.49;33.79;99814.50;4963035;28;20686;-59
2023/07/03 09:17:52;;;;;;;9.80;3.28;;;;;;;25.67;37.70;99825.91;4966124;28;20194;-59
2023/07/03 09:20:19;;;;;;;8.45;3.65;;;;;;;25.11;38.46;99827.38;4955234;28;20198;-58
2023/07/03 09:22:59;;;;;;;10.05;3.80;;;;;;;25.00;39.48;99819.16;4965506;28;20188;-59
2023/07/03 09:25:41;;;;;;;8.77;4.03;;;;;;;24.73;40.97;99824.09;4957698;28;20214;-59
2023/07/03 09:28:09;;;;;;;6.35;3.65;;;;;;;25.68;40.92;99832.00;4957840;28;20239;-57
2023/07/03 09:30:35;;;;;;;8.23;3.70;;;;;;;26.17;36.91;99828.56;4942445;28;20224;-58
2023/07/03 09:33:00;;;;;;;10.80;3.65;;;;;;;26.53;37.29;99830.19;4962635;28;20420;-58
2023/07/03 09:35:35;;;;;;;7.80;3.95;;;;;;;25.92;37.48;99831.59;4967525;28;20336;-58
2023/07/03 09:38:01;;;;;;;9.20;3.92;;;;;;;26.79;37.08;99841.88;4959019;28;20230;-58
2023/07/03 09:40:32;;;;;;;5.97;3.40;;;;;;;27.36;35.79;99831.94;4953365;28;20259;-58
2023/07/03 09:42:59;;;;;;;8.65;3.33;;;;;;;25.72;37.05;99844.59;4961972;28;20200;-59
2023/07/03 09:45:33;;;;;;;7.53;3.22;;;;;;;24.37;39.39;99832.69;4967906;28;20212;-57
2023/07/03 09:48:02;;;;;;;6.38;3.33;;;;;;;24.86;39.97;99834.78;4978216;28;20638;-58
2023/07/03 09:50:31;;;;;;;7.68;3.22;;;;;;;24.42;41.21;99836.41;4999866;28;20230;-57
2023/07/03 09:52:57;;;;;;;7.43;3.67;;;;;;;24.28;41.75;99834.59;5001828;28;20179;-58
2023/07/03 09:55:23;;;;;;;9.45;3.92;;;;;;;23.65;43.57;99825.09;5002138;28;20194;-58
2023/07/03 09:57:48;;;;;;;8.75;3.63;;;;;;;23.43;46.78;99831.97;5004346;28;20190;-58
2023/07/03 10:00:21;;;;;;;8.40;3.63;;;;;;;24.40;43.54;99827.88;4997686;28;20182;-58
2023/07/03 10:02:57;;;;;;;7.90;4.13;;;;;;;24.79;40.89;99836.50;4999543;28;20488;-58
2023/07/03 10:05:33;;;;;;;10.40;4.13;;;;;;;24.58;41.70;99827.50;4991334;28;20206;-59
2023/07/03 10:08:04;;;;;;;8.67;3.90;;;;;;;24.39;41.66;99830.69;4992830;28;20186;-57
2023/07/03 10:10:33;;;;;;;7.47;4.03;;;;;;;24.54;41.64;99820.19;4985551;28;20265;-57
2023/07/03 10:13:05;;;;;;;8.57;3.50;;;;;;;23.90;43.65;99817.00;5017980;28;20213;-58
2023/07/03 10:15:36;;;;;;;9.80;4.07;;;;;;;23.61;44.80;99821.16;5005871;28;20560;-58
2023/07/03 10:18:33;;;;;;;4.10;3.07;;;;;;;23.15;44.50;99821.94;5004890;28;20627;-58
2023/07/03 10:21:01;;;;;;;8.43;3.57;;;;;;;23.16;46.00;99820.97;4990295;28;20233;-59
2023/07/03 10:23:30;;;;;;;8.27;3.63;;;;;;;22.84;49.95;99827.97;5009535;28;20179;-58
2023/07/03 10:26:06;;;;;;;10.67;4.17;;;;;;;23.00;50.72;99832.34;4992544;28;20203;-58
2023/07/03 10:28:37;;;;;;;10.93;4.40;;;;;;;22.77;52.66;99831.47;4992942;28;20240;-58
2023/07/03 10:31:08;;;;;;;8.27;3.87;;;;;;;23.93;46.82;99821.94;4985049;28;20226;-59
2023/07/03 10:33:45;;;;;;;11.50;4.17;;;;;;;24.96;46.30;99830.03;4998881;28;20200;-57
2023/07/03 10:36:17;;;;;;;6.72;3.47;;;;;;;25.17;42.28;99820.56;4992165;28;20210;-57
2023/07/03 10:39:00;;;;;;;7.40;3.25;;;;;;;27.13;37.37;99820.88;4992062;28;20282;-59
2023/07/03 10:41:33;;;;;;;6.40;3.13;;;;;;;27.47;36.55;99827.88;4992839;28;20245;-58
2023/07/03 10:44:07;;;;;;;6.55;2.70;;;;;;;28.29;36.23;99825.06;4996701;28;20191;-57
2023/07/03 10:46:41;;;;;;;14.38;3.33;;;;;;;27.95;34.02;99832.19;4992096;28;20243;-67
2023/07/03 10:49:13;;;;;;;8.95;3.13;;;;;;;26.68;36.17;99824.78;5002413;28;20647;-58
2023/07/03 10:51:55;;;;;;;5.93;2.83;;;;;;;26.36;38.02;99831.53;5001605;28;20676;-58
2023/07/03 10:54:28;;;;;;;9.35;3.55;;;;;;;25.56;39.60;99821.97;5006153;28;20193;-58
2023/07/03 10:56:58;;;;;;;5.65;3.05;;;;;;;25.66;42.01;99820.84;5008836;28;20598;-57
2023/07/03 10:59:27;;;;;;;5.85;3.10;;;;;;;25.87;40.82;99823.44;5014006;28;20636;-69
2023/07/03 11:02:20;;;;;;;6.85;2.90;;;;;;;25.60;39.48;99822.41;5011529;28;20738;-68
2023/07/03 11:05:21;;;;;;;6.40;2.72;;;;;;;25.39;40.53;99818.78;4990034;28;20214;-68
2023/07/03 11:07:59;;;;;;;6.72;2.67;;;;;;;25.61;39.88;99811.72;4994409;28;20618;-69
2023/07/03 11:11:02;;;;;;;10.15;3.55;;;;;;;25.01;40.96;99810.25;5000408;28;20244;-68
2023/07/03 11:13:49;;;;;;;8.50;2.60;;;;;;;24.85;43.07;99811.28;4993896;28;20233;-70
2023/07/03 11:16:16;;;;;;;13.75;3.85;;;;;;;24.58;43.16;99800.41;4987457;28;20222;-68
2023/07/03 11:18:48;;;;;;;6.75;3.03;;;;;;;24.44;41.97;99794.16;5005739;28;20274;-69
2023/07/03 11:21:41;;;;;;;5.93;2.70;;;;;;;24.38;42.56;99798.31;5005419;28;20264;-68
2023/07/03 11:24:29;;;;;;;9.97;3.93;;;;;;;24.42;41.31;99785.63;4990493;28;20572;-67
2023/07/03 11:27:17;;;;;;;9.97;3.60;;;;;;;24.33;41.39;99784.91;5009880;28;20298;-68